メインページ
METAR-TAF:

METAR-TAF

空港 :

マデイラ空港

フンシャル, マデイラ諸島, ポルトガル

緯度: 32-41-52N, 経度: 016-46-28W, 海抜: 59m

現時点の気象観測

当レポートは24分前の03:30(UTC)に作成
の風 8kt、北/北西から北/北東の間で変化する
気温 17°C
湿度 59%
気圧 1031 hPa
視程10km以上
高度1600ftの雲は散在している

METAR: LPMA 130330Z 36008KT 330V030 9999 SCT016 17/09 Q1031

時間: 03:54 (03:54 UTC)

予報

当レポートは4時間54分前の23:00(UTC)に作成
予報は13日の 00時(UTC)から 13日の 24時(UTC)まで有効
の風 12kt
視程10km以上
高度1500ftの雲は散在している
高度3000ftの雲は散在している
13日の 00時(UTC)から 13日の 24時(UTC)まで一時的に
高度1500ftの千切れ雲あり

TAF: LPMA 122300Z 1300/1324 01012KT 9999 SCT015 SCT030 TEMPO 1300/1324 BKN015

4,000以上の空港の気象観測と天気予報(METAR報とTAF報)

利用可能な観測所は地図上に黄色い丸と赤い丸で示す。

丸の上にカーソルを重ねると観測所名を参照できる。

次にクリックすると気象観測と天気予報を参照できる。

マップの切り替え:黒色「×」印の緑ボタンをクリックして拡大、「-」印の緑ボタンをクリックして縮小、緑色の三角印をクリックして隣りの地図に切り替え


METAR-TAF: